Skip Navigation LinksHome page > Weather > Current weather Skip Navigation Links

Current Weather

Ronald Reagan Washington National, Washington

For information only: do not use for flight planning or navigation.
Latest weather
Observation time Wednesday, January 18, 2017 7:52 AM EST
Local time Wednesday, January 18, 2017 8:59 AM EST
Flight conditions Visual Meteorological Conditions
Winds
Wind direction North-Northeast (30°)
Wind speed 5 mph
Visibility 5 mi.
Present weather mist
Sky condition
Ceiling 11,000 ft. broken clouds
Cloud layer few clouds 100 ft.
Cloud layer broken clouds 11,000 ft.
Temperature 46°F
Dewpoint 46°F
Altimeter 29.91 in.Hg
Derived measurements
Relative humidity 100%
Wind chill 44°F
Density altitude -686 ft.
Sea-level pressure 29.91 in.Hg
Remarks
Automated weather observing station with precipitation discriminator.
Visibility southeast south.
METAR KDCA 181252Z 03004KT 5SM BR FEW001 BKN110 08/08 A2991 RMK AO2 SLP129 VIS SE-S 2 T00780078

Settings

Location code

InnerDrive.Weather 4.0.6144.1 Release CLR 4.0.30319.34209
Copyright ©2015 Inner Drive Technology. All rights reserved. Portions Copyright ©1986-2015 David Braverman.

Find weather

Site navigation


Skip Navigation Links

Place info

Page info

PayPal - The safer, easier way to pay online!

Return home.

Copyright ©2017 Inner Drive Technology. Purveyors of fine, hand-crafted computer software. Page printed 2017-01-18T13:59:27 UTC.